sensor_id;sensor_type;location;lat;lon;timestamp;temperature;humidity
26990;DHT22;14537;47.788;11.858;2022-12-18T00:01:32;-5.10;99.90
26990;DHT22;14537;47.788;11.858;2022-12-18T00:03:59;-5.20;99.90
26990;DHT22;14537;47.788;11.858;2022-12-18T00:06:26;-5.10;99.90
26990;DHT22;14537;47.788;11.858;2022-12-18T00:08:52;-5.10;99.90
26990;DHT22;14537;47.788;11.858;2022-12-18T00:11:20;-5.10;99.90
26990;DHT22;14537;47.788;11.858;2022-12-18T00:13:47;-5.00;99.90
26990;DHT22;14537;47.788;11.858;2022-12-18T00:16:17;-5.00;99.90
26990;DHT22;14537;47.788;11.858;2022-12-18T00:18:45;-5.00;99.90
26990;DHT22;14537;47.788;11.858;2022-12-18T00:21:12;-5.10;99.90
26990;DHT22;14537;47.788;11.858;2022-12-18T00:23:39;-5.00;99.90
26990;DHT22;14537;47.788;11.858;2022-12-18T00:26:07;-5.00;99.90
26990;DHT22;14537;47.788;11.858;2022-12-18T00:28:33;-5.00;99.90
26990;DHT22;14537;47.788;11.858;2022-12-18T00:31:03;-5.10;99.90
26990;DHT22;14537;47.788;11.858;2022-12-18T00:33:29;-5.10;99.90
26990;DHT22;14537;47.788;11.858;2022-12-18T00:36:01;-5.10;99.90
26990;DHT22;14537;47.788;11.858;2022-12-18T00:38:27;-5.10;99.90
26990;DHT22;14537;47.788;11.858;2022-12-18T00:40:52;-5.10;99.90
26990;DHT22;14537;47.788;11.858;2022-12-18T00:43:18;-5.10;99.90
26990;DHT22;14537;47.788;11.858;2022-12-18T00:45:44;-5.10;99.90
26990;DHT22;14537;47.788;11.858;2022-12-18T00:48:09;-5.10;99.90
26990;DHT22;14537;47.788;11.858;2022-12-18T00:50:35;-5.20;99.90
26990;DHT22;14537;47.788;11.858;2022-12-18T00:53:02;-5.20;99.90
26990;DHT22;14537;47.788;11.858;2022-12-18T00:55:27;-5.30;99.90
26990;DHT22;14537;47.788;11.858;2022-12-18T00:57:53;-5.20;99.90
26990;DHT22;14537;47.788;11.858;2022-12-18T01:00:18;-5.20;99.90
26990;DHT22;14537;47.788;11.858;2022-12-18T01:02:44;-5.20;99.90
26990;DHT22;14537;47.788;11.858;2022-12-18T01:05:11;-5.20;99.90
26990;DHT22;14537;47.788;11.858;2022-12-18T01:07:37;-5.20;99.90
26990;DHT22;14537;47.788;11.858;2022-12-18T01:10:04;-5.30;99.90
26990;DHT22;14537;47.788;11.858;2022-12-18T01:12:31;-5.30;99.90
26990;DHT22;14537;47.788;11.858;2022-12-18T01:14:56;-5.20;99.90
26990;DHT22;14537;47.788;11.858;2022-12-18T01:17:22;-5.20;99.90
26990;DHT22;14537;47.788;11.858;2022-12-18T01:19:48;-5.20;99.90
26990;DHT22;14537;47.788;11.858;2022-12-18T01:22:13;-5.10;99.90
26990;DHT22;14537;47.788;11.858;2022-12-18T01:24:39;-5.10;99.90
26990;DHT22;14537;47.788;11.858;2022-12-18T01:27:04;-5.10;99.90
26990;DHT22;14537;47.788;11.858;2022-12-18T01:29:30;-5.10;99.90
26990;DHT22;14537;47.788;11.858;2022-12-18T01:31:56;-5.10;99.90
26990;DHT22;14537;47.788;11.858;2022-12-18T01:34:23;-5.00;99.90
26990;DHT22;14537;47.788;11.858;2022-12-18T01:36:48;-5.00;99.90
26990;DHT22;14537;47.788;11.858;2022-12-18T01:39:14;-5.00;99.90
26990;DHT22;14537;47.788;11.858;2022-12-18T01:41:40;-5.00;99.90
26990;DHT22;14537;47.788;11.858;2022-12-18T01:44:55;-5.00;99.90
26990;DHT22;14537;47.788;11.858;2022-12-18T01:47:54;-5.00;99.90
26990;DHT22;14537;47.788;11.858;2022-12-18T01:50:57;-5.00;99.90
26990;DHT22;14537;47.788;11.858;2022-12-18T01:53:21;-5.00;99.90
26990;DHT22;14537;47.788;11.858;2022-12-18T01:55:51;-5.00;99.90
26990;DHT22;14537;47.788;11.858;2022-12-18T01:58:18;-5.00;99.90
26990;DHT22;14537;47.788;11.858;2022-12-18T02:00:45;-5.00;99.90
26990;DHT22;14537;47.788;11.858;2022-12-18T02:03:11;-5.00;99.90
26990;DHT22;14537;47.788;11.858;2022-12-18T02:05:40;-5.00;99.90
26990;DHT22;14537;47.788;11.858;2022-12-18T02:08:12;-5.00;99.90
26990;DHT22;14537;47.788;11.858;2022-12-18T02:11:06;-4.90;99.90
26990;DHT22;14537;47.788;11.858;2022-12-18T02:18:59;-4.90;99.90
26990;DHT22;14537;47.788;11.858;2022-12-18T02:21:53;-5.00;99.90
26990;DHT22;14537;47.788;11.858;2022-12-18T02:27:00;-5.00;99.90
26990;DHT22;14537;47.788;11.858;2022-12-18T02:29:39;-5.00;99.90
26990;DHT22;14537;47.788;11.858;2022-12-18T02:32:13;-4.90;99.90
26990;DHT22;14537;47.788;11.858;2022-12-18T02:34:40;-4.90;99.90
26990;DHT22;14537;47.788;11.858;2022-12-18T02:37:10;-5.00;99.90
26990;DHT22;14537;47.788;11.858;2022-12-18T02:39:38;-4.90;99.90
26990;DHT22;14537;47.788;11.858;2022-12-18T02:42:05;-5.00;99.90
26990;DHT22;14537;47.788;11.858;2022-12-18T02:44:47;-5.10;99.90
26990;DHT22;14537;47.788;11.858;2022-12-18T02:47:16;-5.10;99.90
26990;DHT22;14537;47.788;11.858;2022-12-18T02:50:02;-5.10;99.90
26990;DHT22;14537;47.788;11.858;2022-12-18T03:00:19;-5.10;99.90
26990;DHT22;14537;47.788;11.858;2022-12-18T03:05:24;-5.20;99.90
26990;DHT22;14537;47.788;11.858;2022-12-18T03:08:03;-5.20;99.90
26990;DHT22;14537;47.788;11.858;2022-12-18T03:10:35;-5.10;99.90
26990;DHT22;14537;47.788;11.858;2022-12-18T03:13:07;-5.00;99.90
26990;DHT22;14537;47.788;11.858;2022-12-18T03:15:42;-5.10;99.90
26990;DHT22;14537;47.788;11.858;2022-12-18T03:18:22;-5.10;99.90
26990;DHT22;14537;47.788;11.858;2022-12-18T03:20:50;-5.10;99.90
26990;DHT22;14537;47.788;11.858;2022-12-18T03:23:21;-5.20;99.90
26990;DHT22;14537;47.788;11.858;2022-12-18T03:25:51;-5.10;99.90
26990;DHT22;14537;47.788;11.858;2022-12-18T03:28:21;-5.10;99.90
26990;DHT22;14537;47.788;11.858;2022-12-18T03:30:47;-5.00;99.90
26990;DHT22;14537;47.788;11.858;2022-12-18T03:33:19;-5.00;99.90
26990;DHT22;14537;47.788;11.858;2022-12-18T03:35:48;-5.10;99.90
26990;DHT22;14537;47.788;11.858;2022-12-18T03:38:13;-5.10;99.90
26990;DHT22;14537;47.788;11.858;2022-12-18T03:49:25;-5.20;99.90
26990;DHT22;14537;47.788;11.858;2022-12-18T03:52:04;-5.30;99.90
26990;DHT22;14537;47.788;11.858;2022-12-18T03:54:31;-5.20;99.90
26990;DHT22;14537;47.788;11.858;2022-12-18T03:57:10;-5.30;99.90
26990;DHT22;14537;47.788;11.858;2022-12-18T03:59:37;-5.30;99.90
26990;DHT22;14537;47.788;11.858;2022-12-18T04:02:06;-5.30;99.90
26990;DHT22;14537;47.788;11.858;2022-12-18T04:04:34;-5.20;99.90
26990;DHT22;14537;47.788;11.858;2022-12-18T04:07:00;-5.30;99.90
26990;DHT22;14537;47.788;11.858;2022-12-18T04:09:27;-5.30;99.90
26990;DHT22;14537;47.788;11.858;2022-12-18T04:11:53;-5.40;99.90
26990;DHT22;14537;47.788;11.858;2022-12-18T04:14:19;-5.40;99.90
26990;DHT22;14537;47.788;11.858;2022-12-18T04:16:45;-5.50;99.90
26990;DHT22;14537;47.788;11.858;2022-12-18T04:19:10;-5.50;99.90
26990;DHT22;14537;47.788;11.858;2022-12-18T04:21:36;-5.60;99.90
26990;DHT22;14537;47.788;11.858;2022-12-18T04:24:01;-5.60;99.90
26990;DHT22;14537;47.788;11.858;2022-12-18T04:26:27;-5.50;99.90
26990;DHT22;14537;47.788;11.858;2022-12-18T04:28:53;-5.40;99.90
26990;DHT22;14537;47.788;11.858;2022-12-18T04:31:18;-5.50;99.90
26990;DHT22;14537;47.788;11.858;2022-12-18T04:33:44;-5.60;99.90
26990;DHT22;14537;47.788;11.858;2022-12-18T04:36:09;-5.50;99.90
26990;DHT22;14537;47.788;11.858;2022-12-18T04:38:35;-5.50;99.90
26990;DHT22;14537;47.788;11.858;2022-12-18T04:41:01;-5.50;99.90
26990;DHT22;14537;47.788;11.858;2022-12-18T04:43:26;-5.50;99.90
26990;DHT22;14537;47.788;11.858;2022-12-18T04:45:52;-5.50;99.90
26990;DHT22;14537;47.788;11.858;2022-12-18T04:48:17;-5.60;99.90
26990;DHT22;14537;47.788;11.858;2022-12-18T04:50:43;-5.60;99.90
26990;DHT22;14537;47.788;11.858;2022-12-18T04:53:09;-5.80;99.90
26990;DHT22;14537;47.788;11.858;2022-12-18T04:55:34;-5.70;99.90
26990;DHT22;14537;47.788;11.858;2022-12-18T04:58:00;-5.70;99.90
26990;DHT22;14537;47.788;11.858;2022-12-18T05:00:25;-5.60;99.90
26990;DHT22;14537;47.788;11.858;2022-12-18T05:02:51;-5.60;99.90
26990;DHT22;14537;47.788;11.858;2022-12-18T05:05:17;-5.70;99.90
26990;DHT22;14537;47.788;11.858;2022-12-18T05:07:42;-5.70;99.90
26990;DHT22;14537;47.788;11.858;2022-12-18T05:10:08;-5.60;99.90
26990;DHT22;14537;47.788;11.858;2022-12-18T05:12:34;-5.70;99.90
26990;DHT22;14537;47.788;11.858;2022-12-18T05:15:20;-5.60;99.90
26990;DHT22;14537;47.788;11.858;2022-12-18T05:17:45;-5.70;99.90
26990;DHT22;14537;47.788;11.858;2022-12-18T05:20:11;-5.70;99.90
26990;DHT22;14537;47.788;11.858;2022-12-18T05:22:36;-5.70;99.90
26990;DHT22;14537;47.788;11.858;2022-12-18T05:25:02;-5.70;99.90
26990;DHT22;14537;47.788;11.858;2022-12-18T05:27:28;-5.80;99.90
26990;DHT22;14537;47.788;11.858;2022-12-18T05:29:53;-5.80;99.90
26990;DHT22;14537;47.788;11.858;2022-12-18T05:32:19;-5.80;99.90
26990;DHT22;14537;47.788;11.858;2022-12-18T05:34:44;-5.80;99.90
26990;DHT22;14537;47.788;11.858;2022-12-18T05:37:10;-5.80;99.90
26990;DHT22;14537;47.788;11.858;2022-12-18T05:39:35;-5.80;99.90
26990;DHT22;14537;47.788;11.858;2022-12-18T05:42:01;-5.80;99.90
26990;DHT22;14537;47.788;11.858;2022-12-18T05:44:27;-5.80;99.90
26990;DHT22;14537;47.788;11.858;2022-12-18T05:46:52;-5.80;99.90
26990;DHT22;14537;47.788;11.858;2022-12-18T05:49:18;-5.80;99.90
26990;DHT22;14537;47.788;11.858;2022-12-18T05:51:43;-5.80;99.90
26990;DHT22;14537;47.788;11.858;2022-12-18T05:54:09;-5.90;99.90
26990;DHT22;14537;47.788;11.858;2022-12-18T05:56:35;-5.90;99.90
26990;DHT22;14537;47.788;11.858;2022-12-18T05:59:00;-6.00;99.90
26990;DHT22;14537;47.788;11.858;2022-12-18T06:01:26;-6.00;99.90
26990;DHT22;14537;47.788;11.858;2022-12-18T06:03:52;-5.90;99.90
26990;DHT22;14537;47.788;11.858;2022-12-18T06:06:19;-5.90;99.90
26990;DHT22;14537;47.788;11.858;2022-12-18T06:08:46;-5.90;99.90
26990;DHT22;14537;47.788;11.858;2022-12-18T06:11:12;-5.90;99.90
26990;DHT22;14537;47.788;11.858;2022-12-18T06:13:38;-5.90;99.90
26990;DHT22;14537;47.788;11.858;2022-12-18T06:16:05;-6.00;99.90
26990;DHT22;14537;47.788;11.858;2022-12-18T06:18:31;-6.10;99.90
26990;DHT22;14537;47.788;11.858;2022-12-18T06:20:57;-6.20;99.90
26990;DHT22;14537;47.788;11.858;2022-12-18T06:23:23;-6.20;99.90
26990;DHT22;14537;47.788;11.858;2022-12-18T06:25:49;-6.20;99.90
26990;DHT22;14537;47.788;11.858;2022-12-18T06:28:15;-6.20;99.90
26990;DHT22;14537;47.788;11.858;2022-12-18T06:30:43;-6.20;99.90
26990;DHT22;14537;47.788;11.858;2022-12-18T06:33:09;-6.20;99.90
26990;DHT22;14537;47.788;11.858;2022-12-18T06:35:35;-6.20;99.90
26990;DHT22;14537;47.788;11.858;2022-12-18T06:38:03;-6.30;99.90
26990;DHT22;14537;47.788;11.858;2022-12-18T06:40:28;-6.30;99.90
26990;DHT22;14537;47.788;11.858;2022-12-18T06:42:54;-6.30;99.90
26990;DHT22;14537;47.788;11.858;2022-12-18T06:45:20;-6.30;99.90
26990;DHT22;14537;47.788;11.858;2022-12-18T06:47:45;-6.20;99.90
26990;DHT22;14537;47.788;11.858;2022-12-18T06:50:12;-6.20;99.90
26990;DHT22;14537;47.788;11.858;2022-12-18T06:52:38;-6.20;99.90
26990;DHT22;14537;47.788;11.858;2022-12-18T06:55:05;-6.20;99.90
26990;DHT22;14537;47.788;11.858;2022-12-18T06:57:31;-6.20;99.90
26990;DHT22;14537;47.788;11.858;2022-12-18T06:59:57;-6.30;99.90
26990;DHT22;14537;47.788;11.858;2022-12-18T07:02:22;-6.20;99.90
26990;DHT22;14537;47.788;11.858;2022-12-18T07:04:51;-6.20;99.90
26990;DHT22;14537;47.788;11.858;2022-12-18T07:07:16;-6.20;99.90
26990;DHT22;14537;47.788;11.858;2022-12-18T07:09:42;-6.20;99.90
26990;DHT22;14537;47.788;11.858;2022-12-18T07:12:08;-6.20;99.90
26990;DHT22;14537;47.788;11.858;2022-12-18T07:14:33;-6.30;99.90
26990;DHT22;14537;47.788;11.858;2022-12-18T07:16:59;-6.20;99.90
26990;DHT22;14537;47.788;11.858;2022-12-18T07:19:24;-6.20;99.90
26990;DHT22;14537;47.788;11.858;2022-12-18T07:21:51;-6.30;99.90
26990;DHT22;14537;47.788;11.858;2022-12-18T07:24:16;-6.40;99.90
26990;DHT22;14537;47.788;11.858;2022-12-18T07:26:42;-6.30;99.90
26990;DHT22;14537;47.788;11.858;2022-12-18T07:29:08;-6.30;99.90
26990;DHT22;14537;47.788;11.858;2022-12-18T07:31:33;-6.20;99.90
26990;DHT22;14537;47.788;11.858;2022-12-18T07:33:59;-6.10;99.90
26990;DHT22;14537;47.788;11.858;2022-12-18T07:36:25;-6.20;99.90
26990;DHT22;14537;47.788;11.858;2022-12-18T07:38:51;-6.20;99.90
26990;DHT22;14537;47.788;11.858;2022-12-18T07:41:18;-6.20;99.90
26990;DHT22;14537;47.788;11.858;2022-12-18T07:43:44;-6.20;99.90
26990;DHT22;14537;47.788;11.858;2022-12-18T07:46:11;-6.10;99.90
26990;DHT22;14537;47.788;11.858;2022-12-18T07:48:39;-6.00;99.90
26990;DHT22;14537;47.788;11.858;2022-12-18T07:51:06;-6.00;99.90
26990;DHT22;14537;47.788;11.858;2022-12-18T07:53:33;-5.90;99.90
26990;DHT22;14537;47.788;11.858;2022-12-18T07:56:01;-5.90;99.90
26990;DHT22;14537;47.788;11.858;2022-12-18T07:58:28;-5.90;99.90
26990;DHT22;14537;47.788;11.858;2022-12-18T08:00:54;-5.90;99.90
26990;DHT22;14537;47.788;11.858;2022-12-18T08:03:20;-5.80;99.90
26990;DHT22;14537;47.788;11.858;2022-12-18T08:05:46;-5.80;99.90
26990;DHT22;14537;47.788;11.858;2022-12-18T08:08:15;-5.80;99.90
26990;DHT22;14537;47.788;11.858;2022-12-18T08:10:40;-5.70;99.90
26990;DHT22;14537;47.788;11.858;2022-12-18T08:13:06;-5.60;99.90
26990;DHT22;14537;47.788;11.858;2022-12-18T08:15:31;-5.60;99.90
26990;DHT22;14537;47.788;11.858;2022-12-18T08:17:57;-5.60;99.90
26990;DHT22;14537;47.788;11.858;2022-12-18T08:20:23;-5.50;99.90
26990;DHT22;14537;47.788;11.858;2022-12-18T08:22:48;-5.50;99.90
26990;DHT22;14537;47.788;11.858;2022-12-18T08:25:14;-5.50;99.90
26990;DHT22;14537;47.788;11.858;2022-12-18T08:27:40;-5.50;99.90
26990;DHT22;14537;47.788;11.858;2022-12-18T08:30:06;-5.50;99.90
26990;DHT22;14537;47.788;11.858;2022-12-18T08:32:32;-5.50;99.90
26990;DHT22;14537;47.788;11.858;2022-12-18T08:34:58;-5.40;99.90
26990;DHT22;14537;47.788;11.858;2022-12-18T08:37:24;-5.40;99.90
26990;DHT22;14537;47.788;11.858;2022-12-18T08:39:50;-5.40;99.90
26990;DHT22;14537;47.788;11.858;2022-12-18T08:42:15;-5.30;99.90
26990;DHT22;14537;47.788;11.858;2022-12-18T08:45:00;-5.30;99.90
26990;DHT22;14537;47.788;11.858;2022-12-18T08:47:25;-5.30;99.90
26990;DHT22;14537;47.788;11.858;2022-12-18T08:49:51;-5.40;99.90
26990;DHT22;14537;47.788;11.858;2022-12-18T08:52:17;-5.30;99.90
26990;DHT22;14537;47.788;11.858;2022-12-18T08:54:42;-5.30;99.90
26990;DHT22;14537;47.788;11.858;2022-12-18T08:57:08;-5.30;99.90
26990;DHT22;14537;47.788;11.858;2022-12-18T08:59:34;-5.40;99.90
26990;DHT22;14537;47.788;11.858;2022-12-18T09:01:59;-5.30;99.90
26990;DHT22;14537;47.788;11.858;2022-12-18T09:04:25;-5.20;99.90
26990;DHT22;14537;47.788;11.858;2022-12-18T09:06:50;-5.20;99.90
26990;DHT22;14537;47.788;11.858;2022-12-18T09:09:16;-5.20;99.90
26990;DHT22;14537;47.788;11.858;2022-12-18T09:11:42;-5.20;99.90
26990;DHT22;14537;47.788;11.858;2022-12-18T09:14:09;-5.20;99.90
26990;DHT22;14537;47.788;11.858;2022-12-18T09:16:35;-5.10;99.90
26990;DHT22;14537;47.788;11.858;2022-12-18T09:19:03;-5.10;99.90
26990;DHT22;14537;47.788;11.858;2022-12-18T09:21:32;-5.00;99.90
26990;DHT22;14537;47.788;11.858;2022-12-18T09:23:58;-5.10;99.90
26990;DHT22;14537;47.788;11.858;2022-12-18T09:26:25;-5.10;99.90
26990;DHT22;14537;47.788;11.858;2022-12-18T09:28:51;-5.00;99.90
26990;DHT22;14537;47.788;11.858;2022-12-18T09:31:20;-5.00;99.90
26990;DHT22;14537;47.788;11.858;2022-12-18T09:33:46;-5.00;99.90
26990;DHT22;14537;47.788;11.858;2022-12-18T09:36:14;-4.90;99.90
26990;DHT22;14537;47.788;11.858;2022-12-18T09:38:41;-5.00;99.90
26990;DHT22;14537;47.788;11.858;2022-12-18T09:41:33;-4.90;99.90
26990;DHT22;14537;47.788;11.858;2022-12-18T09:49:22;-4.80;99.90
26990;DHT22;14537;47.788;11.858;2022-12-18T09:51:56;-4.70;99.90
26990;DHT22;14537;47.788;11.858;2022-12-18T09:54:34;-4.80;99.90
26990;DHT22;14537;47.788;11.858;2022-12-18T09:57:01;-4.60;99.90
26990;DHT22;14537;47.788;11.858;2022-12-18T09:59:36;-4.50;99.90
26990;DHT22;14537;47.788;11.858;2022-12-18T10:02:18;-4.50;99.90
26990;DHT22;14537;47.788;11.858;2022-12-18T10:07:51;-4.40;99.90
26990;DHT22;14537;47.788;11.858;2022-12-18T10:21:20;-4.20;99.90
26990;DHT22;14537;47.788;11.858;2022-12-18T10:24:17;-4.10;99.90
26990;DHT22;14537;47.788;11.858;2022-12-18T10:26:46;-4.10;99.90
26990;DHT22;14537;47.788;11.858;2022-12-18T10:29:15;-4.00;99.90
26990;DHT22;14537;47.788;11.858;2022-12-18T10:31:41;-4.00;99.90
26990;DHT22;14537;47.788;11.858;2022-12-18T10:34:13;-4.00;99.90
26990;DHT22;14537;47.788;11.858;2022-12-18T10:36:39;-4.00;99.90
26990;DHT22;14537;47.788;11.858;2022-12-18T10:39:34;-4.00;99.90
26990;DHT22;14537;47.788;11.858;2022-12-18T10:42:18;-4.00;99.90
26990;DHT22;14537;47.788;11.858;2022-12-18T10:44:44;-3.90;99.90
26990;DHT22;14537;47.788;11.858;2022-12-18T10:47:15;-3.90;99.90
26990;DHT22;14537;47.788;11.858;2022-12-18T10:49:49;-3.80;99.90
26990;DHT22;14537;47.788;11.858;2022-12-18T10:52:18;-3.80;99.90
26990;DHT22;14537;47.788;11.858;2022-12-18T10:55:05;-3.70;99.90
26990;DHT22;14537;47.788;11.858;2022-12-18T10:57:38;-3.70;99.90
26990;DHT22;14537;47.788;11.858;2022-12-18T11:02:50;-3.80;99.90
26990;DHT22;14537;47.788;11.858;2022-12-18T11:05:42;-3.90;99.90
26990;DHT22;14537;47.788;11.858;2022-12-18T11:08:20;-3.70;99.90
26990;DHT22;14537;47.788;11.858;2022-12-18T11:10:47;-3.60;99.90
26990;DHT22;14537;47.788;11.858;2022-12-18T11:13:24;-3.70;99.90
26990;DHT22;14537;47.788;11.858;2022-12-18T11:15:51;-3.70;99.90
26990;DHT22;14537;47.788;11.858;2022-12-18T11:18:33;-3.90;99.90
26990;DHT22;14537;47.788;11.858;2022-12-18T11:21:06;-3.80;99.90
26990;DHT22;14537;47.788;11.858;2022-12-18T11:23:34;-4.00;99.90
26990;DHT22;14537;47.788;11.858;2022-12-18T11:26:03;-4.10;99.90
26990;DHT22;14537;47.788;11.858;2022-12-18T11:28:39;-4.20;99.90
26990;DHT22;14537;47.788;11.858;2022-12-18T11:31:26;-4.20;99.90
26990;DHT22;14537;47.788;11.858;2022-12-18T11:34:07;-4.30;99.90
26990;DHT22;14537;47.788;11.858;2022-12-18T11:36:42;-4.40;99.90
26990;DHT22;14537;47.788;11.858;2022-12-18T11:39:19;-4.30;99.90
26990;DHT22;14537;47.788;11.858;2022-12-18T11:42:01;-4.30;99.90
26990;DHT22;14537;47.788;11.858;2022-12-18T11:44:44;-4.30;99.90
26990;DHT22;14537;47.788;11.858;2022-12-18T11:47:49;-4.30;99.90
26990;DHT22;14537;47.788;11.858;2022-12-18T11:50:20;-4.20;99.90
26990;DHT22;14537;47.788;11.858;2022-12-18T11:52:48;-4.20;99.90
26990;DHT22;14537;47.788;11.858;2022-12-18T11:55:27;-4.10;99.90
26990;DHT22;14537;47.788;11.858;2022-12-18T12:01:01;-3.80;99.90
26990;DHT22;14537;47.788;11.858;2022-12-18T12:03:56;-3.70;99.90
26990;DHT22;14537;47.788;11.858;2022-12-18T12:09:27;-3.60;99.90
26990;DHT22;14537;47.788;11.858;2022-12-18T12:17:49;-3.70;99.90
26990;DHT22;14537;47.788;11.858;2022-12-18T12:26:07;-3.60;99.90
26990;DHT22;14537;47.788;11.858;2022-12-18T12:35:06;-3.70;99.90
26990;DHT22;14537;47.788;11.858;2022-12-18T12:37:40;-3.70;99.90
26990;DHT22;14537;47.788;11.858;2022-12-18T12:40:10;-3.80;99.90
26990;DHT22;14537;47.788;11.858;2022-12-18T12:42:45;-3.80;99.90
26990;DHT22;14537;47.788;11.858;2022-12-18T12:48:06;-3.80;99.90
26990;DHT22;14537;47.788;11.858;2022-12-18T12:50:35;-3.80;99.90
26990;DHT22;14537;47.788;11.858;2022-12-18T12:53:05;-3.70;99.90
26990;DHT22;14537;47.788;11.858;2022-12-18T12:55:32;-3.70;99.90
26990;DHT22;14537;47.788;11.858;2022-12-18T13:00:55;-3.80;99.90
26990;DHT22;14537;47.788;11.858;2022-12-18T13:03:39;-3.90;99.90
26990;DHT22;14537;47.788;11.858;2022-12-18T13:06:16;-3.80;99.90
26990;DHT22;14537;47.788;11.858;2022-12-18T13:08:56;-3.80;99.90
26990;DHT22;14537;47.788;11.858;2022-12-18T13:11:44;-3.80;99.90
26990;DHT22;14537;47.788;11.858;2022-12-18T13:14:35;-3.80;99.90
26990;DHT22;14537;47.788;11.858;2022-12-18T13:19:52;-3.80;99.90
26990;DHT22;14537;47.788;11.858;2022-12-18T13:22:35;-3.80;99.90
26990;DHT22;14537;47.788;11.858;2022-12-18T13:25:02;-3.90;99.90
26990;DHT22;14537;47.788;11.858;2022-12-18T13:38:36;-3.80;99.90
26990;DHT22;14537;47.788;11.858;2022-12-18T13:43:34;-3.90;99.90
26990;DHT22;14537;47.788;11.858;2022-12-18T13:46:28;-3.90;99.90
26990;DHT22;14537;47.788;11.858;2022-12-18T13:51:43;-3.90;99.90
26990;DHT22;14537;47.788;11.858;2022-12-18T13:56:56;-4.10;99.90
26990;DHT22;14537;47.788;11.858;2022-12-18T13:59:25;-4.10;99.90
26990;DHT22;14537;47.788;11.858;2022-12-18T14:01:56;-4.10;99.90
26990;DHT22;14537;47.788;11.858;2022-12-18T14:04:30;-4.10;99.90
26990;DHT22;14537;47.788;11.858;2022-12-18T14:07:01;-4.20;99.90
26990;DHT22;14537;47.788;11.858;2022-12-18T14:09:35;-4.20;99.90
26990;DHT22;14537;47.788;11.858;2022-12-18T14:12:02;-4.20;99.90
26990;DHT22;14537;47.788;11.858;2022-12-18T14:14:48;-4.20;99.90
26990;DHT22;14537;47.788;11.858;2022-12-18T14:17:15;-4.30;99.90
26990;DHT22;14537;47.788;11.858;2022-12-18T14:19:45;-4.40;99.90
26990;DHT22;14537;47.788;11.858;2022-12-18T14:22:23;-4.50;99.90
26990;DHT22;14537;47.788;11.858;2022-12-18T14:25:27;-4.50;99.90
26990;DHT22;14537;47.788;11.858;2022-12-18T14:28:04;-4.40;99.90
26990;DHT22;14537;47.788;11.858;2022-12-18T14:30:41;-4.40;99.90
26990;DHT22;14537;47.788;11.858;2022-12-18T14:33:11;-4.40;99.90
26990;DHT22;14537;47.788;11.858;2022-12-18T14:35:41;-4.40;99.90
26990;DHT22;14537;47.788;11.858;2022-12-18T14:40:36;-4.40;99.90
26990;DHT22;14537;47.788;11.858;2022-12-18T14:43:02;-4.50;99.90
26990;DHT22;14537;47.788;11.858;2022-12-18T14:45:35;-4.50;99.90
26990;DHT22;14537;47.788;11.858;2022-12-18T14:48:08;-4.60;99.90
26990;DHT22;14537;47.788;11.858;2022-12-18T14:50:35;-4.70;99.90
26990;DHT22;14537;47.788;11.858;2022-12-18T14:53:00;-4.70;99.90
26990;DHT22;14537;47.788;11.858;2022-12-18T14:55:26;-4.70;99.90
26990;DHT22;14537;47.788;11.858;2022-12-18T14:57:53;-4.80;99.90
26990;DHT22;14537;47.788;11.858;2022-12-18T15:00:22;-4.80;99.90
26990;DHT22;14537;47.788;11.858;2022-12-18T15:02:56;-4.80;99.90
26990;DHT22;14537;47.788;11.858;2022-12-18T15:05:26;-4.80;99.90
26990;DHT22;14537;47.788;11.858;2022-12-18T15:07:57;-4.90;99.90
26990;DHT22;14537;47.788;11.858;2022-12-18T15:18:00;-5.10;99.90
26990;DHT22;14537;47.788;11.858;2022-12-18T15:20:28;-5.20;99.90
26990;DHT22;14537;47.788;11.858;2022-12-18T15:22:56;-5.10;99.90
26990;DHT22;14537;47.788;11.858;2022-12-18T15:25:42;-5.10;99.90
26990;DHT22;14537;47.788;11.858;2022-12-18T15:28:26;-5.00;99.90
26990;DHT22;14537;47.788;11.858;2022-12-18T15:31:17;-5.00;99.90
26990;DHT22;14537;47.788;11.858;2022-12-18T15:36:19;-5.10;99.90
26990;DHT22;14537;47.788;11.858;2022-12-18T15:38:49;-5.10;99.90
26990;DHT22;14537;47.788;11.858;2022-12-18T15:41:17;-5.10;99.90
26990;DHT22;14537;47.788;11.858;2022-12-18T15:43:44;-5.10;99.90
26990;DHT22;14537;47.788;11.858;2022-12-18T15:46:23;-5.10;99.90
26990;DHT22;14537;47.788;11.858;2022-12-18T15:48:51;-5.20;99.90
26990;DHT22;14537;47.788;11.858;2022-12-18T15:51:21;-5.30;99.90
26990;DHT22;14537;47.788;11.858;2022-12-18T15:53:52;-5.30;99.90
26990;DHT22;14537;47.788;11.858;2022-12-18T15:56:19;-5.40;99.90
26990;DHT22;14537;47.788;11.858;2022-12-18T15:59:12;-5.40;99.90
26990;DHT22;14537;47.788;11.858;2022-12-18T16:01:39;-5.40;99.90
26990;DHT22;14537;47.788;11.858;2022-12-18T16:04:05;-5.50;99.90
26990;DHT22;14537;47.788;11.858;2022-12-18T16:06:31;-5.50;99.90
26990;DHT22;14537;47.788;11.858;2022-12-18T16:08:57;-5.50;99.90
26990;DHT22;14537;47.788;11.858;2022-12-18T16:11:27;-5.50;99.90
26990;DHT22;14537;47.788;11.858;2022-12-18T16:14:23;-5.50;99.90
26990;DHT22;14537;47.788;11.858;2022-12-18T16:16:53;-5.60;99.90
26990;DHT22;14537;47.788;11.858;2022-12-18T16:19:19;-5.60;99.90
26990;DHT22;14537;47.788;11.858;2022-12-18T16:21:47;-5.70;99.90
26990;DHT22;14537;47.788;11.858;2022-12-18T16:24:21;-5.70;99.90
26990;DHT22;14537;47.788;11.858;2022-12-18T16:26:48;-5.60;99.90
26990;DHT22;14537;47.788;11.858;2022-12-18T16:29:14;-5.70;99.90
26990;DHT22;14537;47.788;11.858;2022-12-18T16:31:40;-5.80;99.90
26990;DHT22;14537;47.788;11.858;2022-12-18T16:34:21;-5.80;99.90
26990;DHT22;14537;47.788;11.858;2022-12-18T16:36:50;-6.00;99.90
26990;DHT22;14537;47.788;11.858;2022-12-18T16:39:17;-6.00;99.90
26990;DHT22;14537;47.788;11.858;2022-12-18T16:41:42;-6.10;99.90
26990;DHT22;14537;47.788;11.858;2022-12-18T16:44:08;-6.30;99.90
26990;DHT22;14537;47.788;11.858;2022-12-18T16:46:36;-6.40;99.90
26990;DHT22;14537;47.788;11.858;2022-12-18T16:49:02;-6.40;99.90
26990;DHT22;14537;47.788;11.858;2022-12-18T16:51:27;-6.40;99.90
26990;DHT22;14537;47.788;11.858;2022-12-18T16:53:54;-6.40;99.90
26990;DHT22;14537;47.788;11.858;2022-12-18T16:56:20;-6.50;99.90
26990;DHT22;14537;47.788;11.858;2022-12-18T16:58:54;-6.60;99.90
26990;DHT22;14537;47.788;11.858;2022-12-18T17:01:20;-6.60;99.90
26990;DHT22;14537;47.788;11.858;2022-12-18T17:04:01;-6.60;99.90
26990;DHT22;14537;47.788;11.858;2022-12-18T17:06:28;-6.60;99.90
26990;DHT22;14537;47.788;11.858;2022-12-18T17:08:58;-6.60;99.90
26990;DHT22;14537;47.788;11.858;2022-12-18T17:11:41;-6.60;99.90
26990;DHT22;14537;47.788;11.858;2022-12-18T17:14:09;-6.60;99.90
26990;DHT22;14537;47.788;11.858;2022-12-18T17:16:37;-6.50;99.90
26990;DHT22;14537;47.788;11.858;2022-12-18T17:19:02;-6.60;99.90
26990;DHT22;14537;47.788;11.858;2022-12-18T17:21:28;-6.60;99.90
26990;DHT22;14537;47.788;11.858;2022-12-18T17:23:53;-6.60;99.90
26990;DHT22;14537;47.788;11.858;2022-12-18T17:26:19;-6.60;99.90